Flight Track Log - Related Links

Times and Time Zones

All times are in EDT time to prevent confusion due to time zone crossing. See the N775NC flight status page for this flight to view local times or setup timezone preferences in your user account.

Time Position Orientation Groundspeed Altitude Reporting Facility
EDT Latitude Longitude Course Direction KTS MPH feet Rate Location/Type
Mon 02:16:15 PM 33.6500 -84.4667 280° West 182 209 2,300  Level Atlanta TRACON
Mon 02:17:16 PM 33.6667 -84.5500 284° West 267 307 4,500 2,500 Climbing Atlanta TRACON
Mon 02:18:15 PM 33.7000 -84.6333 296° West 271 312 7,300 2,538 Climbing Atlanta TRACON
Mon 02:19:00 PM 33.6804 -84.8541 277° West  Level FlightAware Approximate
Mon 02:19:52 PM 33.7044 -84.7731 272° West 266 306 11,100  Level Atlanta Center
Mon 02:20:00 PM 33.6927 -84.9488 280° West  Level FlightAware Approximate
Mon 02:20:52 PM 33.6744 -84.8725 250° West 294 338 12,000  Level Atlanta Center
Mon 02:21:00 PM 33.7079 -85.0546 280° West  Level FlightAware Approximate
Mon 02:21:52 PM 33.6403 -84.9794 249° West 337 388 14,300  Level Atlanta Center
Mon 02:22:52 PM 33.6081 -85.0914 251° West 355 409 16,100 1,750 Climbing Atlanta Center
Mon 02:23:52 PM 33.5925 -85.2108 261° West 360 414 17,800 950 Climbing Atlanta Center
Mon 02:24:52 PM 33.5767 -85.3353 261° West 377 434 18,000 100 Climbing Atlanta Center
Mon 02:25:52 PM 33.5733 -85.4475 268° West 377 434 18,000 -50 Level Atlanta Center
Mon 02:26:52 PM 33.5717 -85.5772 269° West 387 445 17,900 -1,300 Descending Atlanta Center
Mon 02:27:52 PM 33.5722 -85.7067 270° West 387 445 15,400 -2,400 Descending Atlanta Center
Mon 02:29:02 PM 33.5742 -85.8539 271° West 358 412 12,700 -1,794 Descending Atlanta Center
Mon 02:29:39 PM 33.5711 -85.9236 267° West 337 388 12,200 -433 Descending Atlanta Center
Mon 02:30:39 PM 33.5547 -86.0331 260° West 331 381 12,000 -541 Descending Atlanta Center
Mon 02:31:52 PM 33.5339 -86.1572 259° West 333 383 11,000 -744 Descending Atlanta Center
Mon 02:32:40 PM 33.5222 -86.2342 260° West 301 346 10,500 -1,706 Descending Atlanta Center
Mon 02:33:41 PM 33.5369 -86.3342 280° West 278 320 7,900 -2,705 Descending Atlanta Center
Mon 02:34:42 PM 33.5500 -86.4217 280° West 273 314 5,000 -2,244 Descending Atlanta Center
Mon 02:35:52 PM 33.5647 -86.5169 281° West 269 310 3,000 -992 Descending Atlanta Center
Mon 02:36:43 PM 33.5758 -86.5844 281° West 232 267 3,000 -324 Level Atlanta Center
Mon 02:37:43 PM 33.5847 -86.6569 278° West 215 247 2,400 -558 Descending Atlanta Center
Mon 02:38:52 PM 33.5997 -86.7372 283° West 224 258 1,800 -522 Descending Atlanta Center

Login

Don't have an account? Register now (free) for customized features, flight alerts, and more!